Агаповка

Карта отелей и гостиниц, располагающихся рядом с аэропортом Агаповка :

Агаповка
Магнитогорск
Челябинская область 53° 22' 38.2188" N, 59° 7' 46.4988" E
Агаповка
Магнитогорск
Челябинская область 53° 22' 38.2188" N, 59° 7' 46.4988" E
Код аэродрома ИКАО: 
XSCN
Код аэродрома RU: 
ЬСЦН
Координаты: 
N53.37728° E059.12958°
Превышение над уровнем моря : 
378
Основная полоса: 
01/19
Курс магнитный: 
009/189
Длина основной ВПП: 
870
Ширина основной ВПП: 
80
Покрытие основной ВПП: 
Нетвёрдое (грунт)
Тип: 
Аэродром
Освещение ВПП: 
Нет
Класс аэродрома: 
Статус: 
Недействующий
Принадлежность: 
ДОСААФ
Сайт: 
E-mail аэродрома: 
dosaaf-chel.ask@mail.ru
Страна: 
Россия
Регион: 
Челябинская область
Город: 
Магнитогорск
Дополнительная информация: 
Горный. Оператор: АСК ДОСААФ России. Нкр.=(300)м.

Найти трансфер

С помощью этой формы Вы можете найти трансфер из аэропорта Агаповка в город, аэропорт или вокзал:

Карта места

Javascript is required to view this map.

Погода в аэропортах:

Авиационная погода в аэропорту Алыкель

Регион: 
Погода METAR: 
UOOO 141800Z 30005MPS 0300 0250S FG VV002 10/09 Q1008 R19/15//57 NOSIG RMK QFE740/0986
Время наблюдения: 
2020-07-14T18:00:00Z
Температура C: 
10.0
Точка росы: 
9.0
Направление ветра: 
300
Скорость ветра: 
10
Метеорологическая видимость: 
0.19
Явления погоды: 
FG
Условия полета: 
LIFR
Аэропорт подробнее: 

Авиационная погода в Угольном

Регион: 
Погода METAR: 
UHMA 141800Z 00000MPS 1900 -DZ BR BKN004 BKN011 10/09 Q1003 R01/////// NOSIG RMK TDZ R01/00000G01MPS END R01/05001MPS MT OBSC QFE748/0998
Время наблюдения: 
2020-07-14T18:00:00Z
Температура C: 
10.0
Точка росы: 
9.0
Направление ветра: 
0
Скорость ветра: 
0
Метеорологическая видимость: 
1.18
Явления погоды: 
-DZ BR
Условия полета: 
LIFR
Аэропорт подробнее: 

Авиационная погода в Брянске

Регион: 
Погода METAR: 
UUBP 141500Z 33009MPS 6000 -SHRA BKN007 OVC017CB 15/14 Q1003 R34/190060 NOSIG RMK QFE735/0980
Время наблюдения: 
2020-07-14T15:00:00Z
Температура C: 
15.0
Точка росы: 
14.0
Направление ветра: 
330
Скорость ветра: 
17
Метеорологическая видимость: 
3.73
Явления погоды: 
-SHRA
Условия полета: 
IFR
Аэропорт подробнее: 

Авиационная погода в Ханты-Мансийске

Регион: 
Погода METAR: 
USHH 141730Z 14004MPS 9999 -RA NSC 20/13 Q1019 R06/010060 TEMPO 3000 -TSRA BKN010CB
Время наблюдения: 
2020-07-14T17:30:00Z
Температура C: 
20.0
Точка росы: 
13.0
Направление ветра: 
140
Скорость ветра: 
8
Метеорологическая видимость: 
6.21
Явления погоды: 
-RA
Условия полета: 
VFR
Аэропорт подробнее: